Time;durP1;ratioP1;P1;durP2;ratioP2;P2;SDS_P1;SDS_P2;PMS_P1;PMS_P2;Temp;Humidity;BMP_temperature;BMP_pressure;BME280_temperature;BME280_humidity;BME280_pressure;Samples;Min_cycle;Max_cycle;Signal;HPM_P1;HPM_P2
2022/06/30 00:01:00;;;;;;;9.00;8.10;;;;;;;;;;5055059;28;20178;-68
2022/06/30 00:03:26;;;;;;;11.50;8.77;;;;;;;;;;5072988;28;20202;-67
2022/06/30 00:05:52;;;;;;;8.90;8.00;;;;;;;;;;5073003;28;20181;-67
2022/06/30 00:08:18;;;;;;;11.73;8.70;;;;;;;;;;5072947;28;20209;-68
2022/06/30 00:10:44;;;;;;;11.53;8.83;;;;;;;;;;5073039;28;20235;-67
2022/06/30 00:13:10;;;;;;;11.63;9.37;;;;;;;;;;5072796;28;20208;-67
2022/06/30 00:15:37;;;;;;;11.63;8.73;;;;;;;;;;5072846;28;20673;-67
2022/06/30 00:18:03;;;;;;;13.50;9.13;;;;;;;;;;5054842;28;20182;-67
2022/06/30 00:20:29;;;;;;;11.13;8.17;;;;;;;;;;5055014;28;20178;-67
2022/06/30 00:22:55;;;;;;;10.23;8.90;;;;;;;;;;5072653;28;20209;-67
2022/06/30 00:25:21;;;;;;;9.93;8.67;;;;;;;;;;5055032;28;20186;-67
2022/06/30 00:27:47;;;;;;;10.20;9.20;;;;;;;;;;5072927;28;20222;-67
2022/06/30 00:30:13;;;;;;;12.47;9.03;;;;;;;;;;5054874;28;20240;-67
2022/06/30 00:32:39;;;;;;;12.23;9.10;;;;;;;;;;5072594;28;20576;-67
2022/06/30 00:35:05;;;;;;;11.07;8.73;;;;;;;;;;5072668;28;20205;-67
2022/06/30 00:37:31;;;;;;;15.00;9.43;;;;;;;;;;5073326;28;20208;-67
2022/06/30 00:39:57;;;;;;;10.53;9.30;;;;;;;;;;5072800;28;20255;-67
2022/06/30 00:42:23;;;;;;;13.10;9.60;;;;;;;;;;5073330;28;20197;-67
2022/06/30 00:44:49;;;;;;;10.77;9.23;;;;;;;;;;5054741;28;20664;-68
2022/06/30 00:47:15;;;;;;;10.40;9.37;;;;;;;;;;5073290;28;20170;-67
2022/06/30 00:49:41;;;;;;;10.57;8.77;;;;;;;;;;5072543;28;20265;-67
2022/06/30 00:52:08;;;;;;;15.10;9.17;;;;;;;;;;5072365;28;20228;-67
2022/06/30 00:54:34;;;;;;;10.30;9.27;;;;;;;;;;5054730;28;20559;-67
2022/06/30 00:57:01;;;;;;;13.37;10.63;;;;;;;;;;5075604;28;20260;-68
2022/06/30 00:59:27;;;;;;;11.60;9.53;;;;;;;;;;5076513;28;20196;-67
2022/06/30 01:01:53;;;;;;;12.20;10.10;;;;;;;;;;5076567;28;20634;-68
2022/06/30 01:04:19;;;;;;;12.03;9.87;;;;;;;;;;5057795;28;20201;-67
2022/06/30 01:06:45;;;;;;;10.67;9.57;;;;;;;;;;5057954;28;20193;-67
2022/06/30 01:09:12;;;;;;;12.70;10.30;;;;;;;;;;5076356;28;20185;-66
2022/06/30 01:14:22;;;;;;;10.30;8.83;;;;;;;;;;5075921;28;20224;-67
2022/06/30 01:16:48;;;;;;;11.30;9.37;;;;;;;;;;5075996;28;20205;-67
2022/06/30 01:19:15;;;;;;;12.67;9.70;;;;;;;;;;5058251;28;20182;-68
2022/06/30 01:21:57;;;;;;;12.43;9.43;;;;;;;;;;5058152;28;20201;-68
2022/06/30 01:24:23;;;;;;;13.30;10.20;;;;;;;;;;5075590;28;20205;-67
2022/06/30 01:26:55;;;;;;;10.57;9.03;;;;;;;;;;5076322;28;20174;-67
2022/06/30 01:29:21;;;;;;;12.07;9.90;;;;;;;;;;5076200;28;20223;-67
2022/06/30 01:31:47;;;;;;;11.93;10.10;;;;;;;;;;5076416;28;20625;-67
2022/06/30 01:34:13;;;;;;;10.73;9.63;;;;;;;;;;5075348;28;20677;-67
2022/06/30 01:36:39;;;;;;;11.80;9.93;;;;;;;;;;5057677;28;20178;-67
2022/06/30 01:39:05;;;;;;;10.27;9.17;;;;;;;;;;5075659;28;20169;-67
2022/06/30 01:41:31;;;;;;;14.97;9.57;;;;;;;;;;5075365;28;20542;-67
2022/06/30 01:43:56;;;;;;;11.33;9.50;;;;;;;;;;5075470;28;20220;-67
2022/06/30 01:46:22;;;;;;;10.10;9.10;;;;;;;;;;5075141;28;20622;-67
2022/06/30 01:48:48;;;;;;;11.03;9.93;;;;;;;;;;5057280;28;20181;-68
2022/06/30 01:51:14;;;;;;;10.73;9.63;;;;;;;;;;5075332;28;20652;-67
2022/06/30 01:53:40;;;;;;;11.50;9.40;;;;;;;;;;5075322;28;20205;-67
2022/06/30 01:56:06;;;;;;;14.50;10.03;;;;;;;;;;5057580;28;20687;-67
2022/06/30 01:58:32;;;;;;;13.10;10.13;;;;;;;;;;5057132;28;20641;-67
2022/06/30 02:00:58;;;;;;;12.60;9.10;;;;;;;;;;5056961;28;20276;-67
2022/06/30 02:03:24;;;;;;;10.23;9.13;;;;;;;;;;5074893;28;20228;-67
2022/06/30 02:05:50;;;;;;;11.13;9.60;;;;;;;;;;5075439;28;20186;-67
2022/06/30 02:08:16;;;;;;;14.77;9.97;;;;;;;;;;5073928;28;20580;-67
2022/06/30 02:10:43;;;;;;;12.40;10.23;;;;;;;;;;5074898;28;20564;-67
2022/06/30 02:13:09;;;;;;;11.00;9.90;;;;;;;;;;5074456;28;20205;-67
2022/06/30 02:15:36;;;;;;;11.03;9.93;;;;;;;;;;5074535;28;20198;-67
2022/06/30 02:18:04;;;;;;;10.40;9.30;;;;;;;;;;5074841;28;20174;-67
2022/06/30 02:20:30;;;;;;;13.03;10.23;;;;;;;;;;5056588;28;20193;-68
2022/06/30 02:22:58;;;;;;;12.57;10.90;;;;;;;;;;5074405;28;20198;-67
2022/06/30 02:25:25;;;;;;;11.63;10.50;;;;;;;;;;5074285;28;20189;-67
2022/06/30 02:27:51;;;;;;;13.60;10.07;;;;;;;;;;5056435;28;20186;-67
2022/06/30 02:30:17;;;;;;;14.63;10.77;;;;;;;;;;5074557;28;20184;-68
2022/06/30 02:32:43;;;;;;;12.93;10.17;;;;;;;;;;5056317;28;20218;-67
2022/06/30 02:35:10;;;;;;;12.27;10.70;;;;;;;;;;5056188;28;20208;-67
2022/06/30 02:37:36;;;;;;;13.80;9.93;;;;;;;;;;5074568;28;20178;-69
2022/06/30 02:40:02;;;;;;;11.67;10.40;;;;;;;;;;5074117;28;20668;-67
2022/06/30 02:42:28;;;;;;;10.97;9.87;;;;;;;;;;5074114;28;20196;-68
2022/06/30 02:44:54;;;;;;;10.37;9.37;;;;;;;;;;5074237;28;20257;-67
2022/06/30 02:47:20;;;;;;;10.57;9.43;;;;;;;;;;5074279;28;20272;-66
2022/06/30 02:49:47;;;;;;;12.83;11.43;;;;;;;;;;5074381;28;20602;-67
2022/06/30 02:52:13;;;;;;;11.90;10.10;;;;;;;;;;5073832;28;20173;-67
2022/06/30 02:54:39;;;;;;;13.77;10.50;;;;;;;;;;5073782;28;20359;-67
2022/06/30 02:57:05;;;;;;;11.27;10.10;;;;;;;;;;5055802;28;20273;-68
2022/06/30 02:59:31;;;;;;;12.10;10.27;;;;;;;;;;5073849;28;20265;-67
2022/06/30 03:01:57;;;;;;;12.47;9.90;;;;;;;;;;5073688;28;20265;-67
2022/06/30 03:04:23;;;;;;;13.40;10.20;;;;;;;;;;5055662;28;20224;-68
2022/06/30 03:06:49;;;;;;;11.60;10.40;;;;;;;;;;5073891;28;20273;-67
2022/06/30 03:09:15;;;;;;;11.23;10.00;;;;;;;;;;5073620;28;20219;-67
2022/06/30 03:11:40;;;;;;;13.00;11.60;;;;;;;;;;5073779;28;20668;-67
2022/06/30 03:14:06;;;;;;;13.07;10.67;;;;;;;;;;5073983;28;20201;-67
2022/06/30 03:16:32;;;;;;;13.97;12.07;;;;;;;;;;5073393;28;20655;-67
2022/06/30 03:18:58;;;;;;;14.30;11.60;;;;;;;;;;5055194;28;20703;-67
2022/06/30 03:21:24;;;;;;;11.73;10.63;;;;;;;;;;5073378;28;20633;-67
2022/06/30 03:23:50;;;;;;;14.50;12.07;;;;;;;;;;5073312;28;20296;-66
2022/06/30 03:26:16;;;;;;;14.67;12.47;;;;;;;;;;5073322;28;20276;-67
2022/06/30 03:28:42;;;;;;;14.37;12.13;;;;;;;;;;5055365;28;20181;-67
2022/06/30 03:31:08;;;;;;;13.17;11.87;;;;;;;;;;5073601;28;20184;-67
2022/06/30 03:33:34;;;;;;;13.57;11.60;;;;;;;;;;5073122;28;20220;-67
2022/06/30 03:36:00;;;;;;;17.23;13.07;;;;;;;;;;5055290;28;20209;-67
2022/06/30 03:38:26;;;;;;;13.40;12.00;;;;;;;;;;5073175;28;20174;-67
2022/06/30 03:40:52;;;;;;;14.87;13.27;;;;;;;;;;5073073;28;20177;-67
2022/06/30 03:43:18;;;;;;;15.83;12.63;;;;;;;;;;5055108;28;20243;-68
2022/06/30 03:45:44;;;;;;;14.77;12.23;;;;;;;;;;5073165;28;20174;-69
2022/06/30 03:48:10;;;;;;;17.57;12.53;;;;;;;;;;5073214;28;20181;-67
2022/06/30 03:50:36;;;;;;;19.57;12.90;;;;;;;;;;5055163;28;20268;-68
2022/06/30 03:53:03;;;;;;;14.63;13.00;;;;;;;;;;5055100;28;20259;-67
2022/06/30 03:55:29;;;;;;;14.93;12.30;;;;;;;;;;5073211;28;20258;-67
2022/06/30 03:57:55;;;;;;;14.27;11.80;;;;;;;;;;5055213;28;20265;-68
2022/06/30 04:00:22;;;;;;;13.73;12.33;;;;;;;;;;5055107;28;20634;-67
2022/06/30 04:02:48;;;;;;;13.67;12.23;;;;;;;;;;5073174;28;20246;-67
2022/06/30 04:05:14;;;;;;;12.93;11.63;;;;;;;;;;5073133;28;20186;-67
2022/06/30 04:07:41;;;;;;;18.90;12.57;;;;;;;;;;5072903;28;20189;-67
2022/06/30 04:10:08;;;;;;;18.90;12.57;;;;;;;;;;5054883;28;20559;-67
2022/06/30 04:12:34;;;;;;;16.47;12.53;;;;;;;;;;5072838;28;20681;-67
2022/06/30 04:15:00;;;;;;;16.53;12.70;;;;;;;;;;5054666;28;20206;-68
2022/06/30 04:17:26;;;;;;;18.13;13.97;;;;;;;;;;5073368;28;20621;-67
2022/06/30 04:19:52;;;;;;;15.53;12.60;;;;;;;;;;5072742;28;20178;-67
2022/06/30 04:22:18;;;;;;;14.03;12.33;;;;;;;;;;5072856;28;20174;-67
2022/06/30 04:24:44;;;;;;;16.47;12.43;;;;;;;;;;5072680;28;20247;-66
2022/06/30 04:27:10;;;;;;;15.07;12.37;;;;;;;;;;5054885;28;20666;-67
2022/06/30 04:29:36;;;;;;;13.77;12.37;;;;;;;;;;5073727;28;20594;-67
2022/06/30 04:34:46;;;;;;;17.97;13.33;;;;;;;;;;5076887;28;20205;-67
2022/06/30 04:37:12;;;;;;;18.83;13.33;;;;;;;;;;5076362;28;20174;-67
2022/06/30 04:39:38;;;;;;;15.33;13.10;;;;;;;;;;5077558;28;20178;-68
2022/06/30 04:42:04;;;;;;;15.30;12.63;;;;;;;;;;5076660;28;20222;-68
2022/06/30 04:44:30;;;;;;;16.10;13.07;;;;;;;;;;5076490;28;20261;-67
2022/06/30 04:46:56;;;;;;;17.70;11.97;;;;;;;;;;5076402;28;20567;-67
2022/06/30 04:49:22;;;;;;;14.93;12.03;;;;;;;;;;5076246;28;20184;-68
2022/06/30 04:51:48;;;;;;;18.43;13.17;;;;;;;;;;5058216;28;20182;-67
2022/06/30 04:54:14;;;;;;;16.43;13.50;;;;;;;;;;5076079;28;20193;-67
2022/06/30 04:56:40;;;;;;;14.17;12.60;;;;;;;;;;5058134;28;20182;-67
2022/06/30 04:59:06;;;;;;;13.90;11.37;;;;;;;;;;5058048;28;20182;-68
2022/06/30 05:01:32;;;;;;;13.13;11.57;;;;;;;;;;5058062;28;20182;-68
2022/06/30 05:03:57;;;;;;;16.93;11.47;;;;;;;;;;5075818;28;20194;-68
2022/06/30 05:06:23;;;;;;;11.43;10.23;;;;;;;;;;5076311;28;20101;-68
2022/06/30 05:08:49;;;;;;;12.25;10.95;;;;;;;;;;5074670;28;20390;-68
2022/06/30 05:11:15;;;;;;;13.52;10.90;;;;;;;;;;5074536;28;20917;-68
2022/06/30 05:13:41;;;;;;;11.88;10.68;;;;;;;;;;5074999;28;20380;-68
2022/06/30 05:16:07;;;;;;;10.40;9.32;;;;;;;;;;5075643;28;20224;-66
2022/06/30 05:18:33;;;;;;;11.20;9.80;;;;;;;;;;5075768;28;20205;-66
2022/06/30 05:20:59;;;;;;;11.98;10.30;;;;;;;;;;5058560;28;20181;-67
2022/06/30 05:23:25;;;;;;;10.73;9.67;;;;;;;;;;5075654;28;20733;-66
2022/06/30 05:28:36;;;;;;;12.40;10.63;;;;;;;;;;5075628;28;20297;-66
2022/06/30 05:31:02;;;;;;;14.30;11.80;;;;;;;;;;5074938;28;20815;-66
2022/06/30 05:33:28;;;;;;;11.93;10.63;;;;;;;;;;5057393;28;20213;-66
2022/06/30 05:35:54;;;;;;;12.63;11.17;;;;;;;;;;5057410;28;20205;-66
2022/06/30 05:38:20;;;;;;;12.37;11.13;;;;;;;;;;5075456;28;20188;-68
2022/06/30 05:40:47;;;;;;;12.23;11.03;;;;;;;;;;5057292;28;20208;-67
2022/06/30 05:43:14;;;;;;;13.07;10.93;;;;;;;;;;5057157;28;20610;-66
2022/06/30 05:45:40;;;;;;;15.67;11.10;;;;;;;;;;5075652;28;20234;-66
2022/06/30 05:48:06;;;;;;;14.07;11.73;;;;;;;;;;5075400;28;20174;-66
2022/06/30 05:50:32;;;;;;;13.27;11.00;;;;;;;;;;5075122;28;20177;-67
2022/06/30 05:52:58;;;;;;;19.90;11.53;;;;;;;;;;5074948;28;20251;-66
2022/06/30 05:55:24;;;;;;;16.07;12.60;;;;;;;;;;5075034;28;20197;-67
2022/06/30 05:57:55;;;;;;;15.37;11.93;;;;;;;;;;5075278;28;20170;-68
2022/06/30 06:00:21;;;;;;;14.53;12.13;;;;;;;;;;5075139;28;20753;-67
2022/06/30 06:02:48;;;;;;;13.10;10.90;;;;;;;;;;5074668;28;20235;-66
2022/06/30 06:05:14;;;;;;;15.03;11.03;;;;;;;;;;5074714;28;20174;-66
2022/06/30 06:07:40;;;;;;;17.97;12.13;;;;;;;;;;5074944;28;20189;-66
2022/06/30 06:10:06;;;;;;;14.70;11.50;;;;;;;;;;5074834;28;20185;-66
2022/06/30 06:12:32;;;;;;;12.60;11.27;;;;;;;;;;5056569;28;20229;-65
2022/06/30 06:14:58;;;;;;;13.77;11.50;;;;;;;;;;5075071;28;20256;-66
2022/06/30 06:17:24;;;;;;;17.27;12.17;;;;;;;;;;5056501;28;20173;-68
2022/06/30 06:19:50;;;;;;;18.27;14.23;;;;;;;;;;5056480;28;20174;-67
2022/06/30 06:22:16;;;;;;;15.97;13.10;;;;;;;;;;5074347;28;20593;-66
2022/06/30 06:24:41;;;;;;;16.57;13.27;;;;;;;;;;5074565;28;20231;-66
2022/06/30 06:27:07;;;;;;;18.80;13.03;;;;;;;;;;5074319;28;20262;-67
2022/06/30 06:29:33;;;;;;;16.60;12.53;;;;;;;;;;5074210;28;20219;-65
2022/06/30 06:31:59;;;;;;;17.50;11.53;;;;;;;;;;5056517;28;20182;-66
2022/06/30 06:34:25;;;;;;;14.17;11.20;;;;;;;;;;5056087;28;20242;-66
2022/06/30 06:36:51;;;;;;;15.90;10.87;;;;;;;;;;5074432;28;20182;-66
2022/06/30 06:39:17;;;;;;;16.13;11.80;;;;;;;;;;5074097;28;20545;-66
2022/06/30 06:41:43;;;;;;;14.60;11.23;;;;;;;;;;5056007;28;20225;-66
2022/06/30 06:44:09;;;;;;;12.73;10.17;;;;;;;;;;5056008;28;20193;-66
2022/06/30 06:46:35;;;;;;;18.63;9.03;;;;;;;;;;5073923;28;20205;-66
2022/06/30 06:49:02;;;;;;;9.23;7.53;;;;;;;;;;5073882;28;20269;-66
2022/06/30 06:51:29;;;;;;;9.77;6.47;;;;;;;;;;5055963;28;20181;-66
2022/06/30 06:53:55;;;;;;;8.40;6.73;;;;;;;;;;5073109;28;20677;-65
2022/06/30 06:56:21;;;;;;;8.87;6.47;;;;;;;;;;5055740;28;20234;-66
2022/06/30 06:58:47;;;;;;;7.20;5.10;;;;;;;;;;5055712;28;20180;-66
2022/06/30 07:01:13;;;;;;;11.23;6.60;;;;;;;;;;5074032;28;20208;-69
2022/06/30 07:03:39;;;;;;;9.57;5.53;;;;;;;;;;5055491;28;20225;-67
2022/06/30 07:06:06;;;;;;;6.93;5.10;;;;;;;;;;5073588;28;20610;-67
2022/06/30 07:08:32;;;;;;;5.93;5.13;;;;;;;;;;5073769;28;20178;-66
2022/06/30 07:10:59;;;;;;;8.00;5.33;;;;;;;;;;5055610;28;20592;-67
2022/06/30 07:13:25;;;;;;;6.43;4.53;;;;;;;;;;5055486;28;20198;-65
2022/06/30 07:15:51;;;;;;;5.37;4.77;;;;;;;;;;5073639;28;20576;-66
2022/06/30 07:18:17;;;;;;;5.87;4.70;;;;;;;;;;5073359;28;20174;-67
2022/06/30 07:20:43;;;;;;;5.63;4.93;;;;;;;;;;5073998;28;20181;-67
2022/06/30 07:23:09;;;;;;;5.53;4.90;;;;;;;;;;5055360;28;20198;-66
2022/06/30 07:25:35;;;;;;;5.77;4.60;;;;;;;;;;5055329;28;20182;-66
2022/06/30 07:28:02;;;;;;;5.73;4.83;;;;;;;;;;5073338;28;20174;-67
2022/06/30 07:30:28;;;;;;;5.53;4.80;;;;;;;;;;5055280;28;20193;-67
2022/06/30 07:32:53;;;;;;;5.70;5.00;;;;;;;;;;5073099;28;20225;-67
2022/06/30 07:35:19;;;;;;;5.77;4.33;;;;;;;;;;5073116;28;20212;-67
2022/06/30 07:37:45;;;;;;;4.43;4.03;;;;;;;;;;5073249;28;20260;-67
2022/06/30 07:40:12;;;;;;;5.23;4.70;;;;;;;;;;5055118;28;20182;-67
2022/06/30 07:42:39;;;;;;;4.80;4.40;;;;;;;;;;5073052;28;20570;-67
2022/06/30 07:45:05;;;;;;;6.63;4.40;;;;;;;;;;5073435;28;20173;-67
2022/06/30 07:47:31;;;;;;;7.70;4.53;;;;;;;;;;5073082;28;20183;-67
2022/06/30 07:49:57;;;;;;;4.73;4.20;;;;;;;;;;5055126;28;20192;-66
2022/06/30 07:52:23;;;;;;;7.27;4.13;;;;;;;;;;5073236;28;20810;-67
2022/06/30 07:54:51;;;;;;;5.80;4.83;;;;;;;;;;5054981;28;20673;-67
2022/06/30 07:57:17;;;;;;;6.43;4.20;;;;;;;;;;5073436;28;20176;-67
2022/06/30 07:59:43;;;;;;;4.87;3.63;;;;;;;;;;5055076;28;20174;-67
2022/06/30 08:02:08;;;;;;;4.77;3.67;;;;;;;;;;5073155;28;20170;-67
2022/06/30 08:04:35;;;;;;;5.93;3.90;;;;;;;;;;5073043;28;20205;-67
2022/06/30 08:07:02;;;;;;;5.50;3.60;;;;;;;;;;5058338;28;20182;-67
2022/06/30 08:09:28;;;;;;;7.60;4.17;;;;;;;;;;5076890;28;20184;-67
2022/06/30 08:11:54;;;;;;;6.93;3.40;;;;;;;;;;5076880;28;20217;-67
2022/06/30 08:14:21;;;;;;;5.23;3.70;;;;;;;;;;5077107;28;20200;-67
2022/06/30 08:16:47;;;;;;;4.40;3.30;;;;;;;;;;5058702;28;20642;-67
2022/06/30 08:19:13;;;;;;;7.33;4.07;;;;;;;;;;5058780;28;20178;-67
2022/06/30 08:21:39;;;;;;;5.00;3.60;;;;;;;;;;5076668;28;20180;-67
2022/06/30 08:24:05;;;;;;;7.23;3.73;;;;;;;;;;5058708;28;20194;-65
2022/06/30 08:26:31;;;;;;;5.20;3.33;;;;;;;;;;5076713;28;20178;-67
2022/06/30 08:28:57;;;;;;;8.37;3.83;;;;;;;;;;5076918;28;20174;-67
2022/06/30 08:31:23;;;;;;;4.60;3.40;;;;;;;;;;5076686;28;20206;-66
2022/06/30 08:33:50;;;;;;;5.87;3.60;;;;;;;;;;5058473;28;20235;-67
2022/06/30 08:36:17;;;;;;;4.03;3.60;;;;;;;;;;5076594;28;20194;-67
2022/06/30 08:38:43;;;;;;;5.73;3.47;;;;;;;;;;5076418;28;20642;-67
2022/06/30 08:43:54;;;;;;;3.13;2.83;;;;;;;;;;5076650;28;20209;-67
2022/06/30 08:46:23;;;;;;;5.33;3.67;;;;;;;;;;5076179;28;20178;-67
2022/06/30 08:48:49;;;;;;;6.17;3.57;;;;;;;;;;5076705;28;20174;-67
2022/06/30 08:51:17;;;;;;;5.07;3.80;;;;;;;;;;5076776;28;20178;-67
2022/06/30 08:53:52;;;;;;;6.03;4.10;;;;;;;;;;5058031;28;20209;-67
2022/06/30 08:56:19;;;;;;;4.70;3.67;;;;;;;;;;5076115;28;20209;-67
2022/06/30 08:58:45;;;;;;;8.90;4.13;;;;;;;;;;5058132;28;20173;-67
2022/06/30 09:01:11;;;;;;;9.37;3.50;;;;;;;;;;5076530;28;20181;-67
2022/06/30 09:03:38;;;;;;;4.53;3.03;;;;;;;;;;5075882;28;20198;-67
2022/06/30 09:06:04;;;;;;;4.77;3.50;;;;;;;;;;5076075;28;20261;-67
2022/06/30 09:08:30;;;;;;;7.50;3.83;;;;;;;;;;5076475;28;20174;-67
2022/06/30 09:10:57;;;;;;;4.73;3.93;;;;;;;;;;5075798;28;20186;-66
2022/06/30 09:13:23;;;;;;;4.20;3.80;;;;;;;;;;5075583;28;20288;-66
2022/06/30 09:15:50;;;;;;;5.67;3.27;;;;;;;;;;5075515;28;20255;-66
2022/06/30 09:18:27;;;;;;;5.97;3.00;;;;;;;;;;5075228;28;20170;-66
2022/06/30 09:20:53;;;;;;;6.57;3.30;;;;;;;;;;5075364;28;20178;-67
2022/06/30 09:23:20;;;;;;;3.07;2.80;;;;;;;;;;5075554;28;20197;-65
2022/06/30 09:25:47;;;;;;;3.90;3.00;;;;;;;;;;5075614;28;20189;-66
2022/06/30 09:28:14;;;;;;;7.93;2.60;;;;;;;;;;5057203;28;20185;-67
2022/06/30 09:30:40;;;;;;;2.73;2.53;;;;;;;;;;5075778;28;20181;-66
2022/06/30 09:33:07;;;;;;;9.60;2.80;;;;;;;;;;5075165;28;20225;-67
2022/06/30 09:35:33;;;;;;;3.77;2.70;;;;;;;;;;5075179;28;20193;-67
2022/06/30 09:37:59;;;;;;;7.07;2.80;;;;;;;;;;5057418;28;20185;-67
2022/06/30 09:41:02;;;;;;;3.30;3.00;;;;;;;;;;5057434;28;20273;-67
2022/06/30 09:43:31;;;;;;;4.20;2.80;;;;;;;;;;5075300;28;20639;-67
2022/06/30 09:45:58;;;;;;;5.37;2.43;;;;;;;;;;5057253;28;20664;-67
2022/06/30 09:48:26;;;;;;;3.83;2.83;;;;;;;;;;5075375;28;20193;-67
2022/06/30 09:51:04;;;;;;;4.00;3.10;;;;;;;;;;5075028;28;20182;-67
2022/06/30 09:53:31;;;;;;;5.40;2.40;;;;;;;;;;5074956;28;20205;-67
2022/06/30 09:56:09;;;;;;;6.80;3.00;;;;;;;;;;5074898;28;20197;-67
2022/06/30 09:58:36;;;;;;;2.50;2.30;;;;;;;;;;5056838;28;20232;-66
2022/06/30 10:01:03;;;;;;;5.30;2.90;;;;;;;;;;5074983;28;20177;-67
2022/06/30 10:03:29;;;;;;;3.37;2.67;;;;;;;;;;5074736;28;20265;-66
2022/06/30 10:06:08;;;;;;;4.87;3.00;;;;;;;;;;5074918;28;20665;-67
2022/06/30 10:08:35;;;;;;;3.50;2.63;;;;;;;;;;5074622;28;20254;-67
2022/06/30 10:11:01;;;;;;;3.40;3.07;;;;;;;;;;5056752;28;20181;-68
2022/06/30 10:13:27;;;;;;;3.60;3.27;;;;;;;;;;5074455;28;20198;-67
2022/06/30 10:15:54;;;;;;;6.00;3.60;;;;;;;;;;5074716;28;20649;-67
2022/06/30 10:18:21;;;;;;;6.03;2.97;;;;;;;;;;5074482;28;20711;-66
2022/06/30 10:20:47;;;;;;;4.20;3.27;;;;;;;;;;5074680;28;20170;-67
2022/06/30 10:23:14;;;;;;;7.43;3.20;;;;;;;;;;5074537;28;20593;-66
2022/06/30 10:25:41;;;;;;;8.33;3.43;;;;;;;;;;5056477;28;20656;-68
2022/06/30 10:28:06;;;;;;;5.50;3.60;;;;;;;;;;5073361;28;20174;-67
2022/06/30 10:30:41;;;;;;;3.80;3.40;;;;;;;;;;5074339;28;20184;-67
2022/06/30 10:33:26;;;;;;;4.80;3.50;;;;;;;;;;5074076;28;20227;-67
2022/06/30 10:35:59;;;;;;;4.97;3.60;;;;;;;;;;5074165;28;20280;-67
2022/06/30 10:38:25;;;;;;;7.37;3.57;;;;;;;;;;5055987;28;20251;-67
2022/06/30 10:41:14;;;;;;;9.70;4.23;;;;;;;;;;5078752;22;20190;-69
2022/06/30 10:43:59;;;;;;;6.33;3.70;;;;;;;;;;5036473;28;20174;-69
2022/06/30 10:46:25;;;;;;;7.03;3.90;;;;;;;;;;5054635;28;20175;-69
2022/06/30 10:48:54;;;;;;;8.03;4.17;;;;;;;;;;5054547;28;20182;-69
2022/06/30 10:51:21;;;;;;;7.47;4.83;;;;;;;;;;5054056;28;20691;-69
2022/06/30 10:53:48;;;;;;;6.17;4.60;;;;;;;;;;5054229;28;20261;-69
2022/06/30 10:56:14;;;;;;;5.83;5.13;;;;;;;;;;5036123;28;20218;-68
2022/06/30 10:58:59;;;;;;;3.90;3.50;;;;;;;;;;5054257;28;20202;-68
2022/06/30 11:01:25;;;;;;;4.50;3.93;;;;;;;;;;5053785;28;20190;-69
2022/06/30 11:03:50;;;;;;;6.90;3.13;;;;;;;;;;5035952;28;20182;-69
2022/06/30 11:06:16;;;;;;;7.60;4.00;;;;;;;;;;5053885;28;20182;-70
2022/06/30 11:08:47;;;;;;;7.97;4.03;;;;;;;;;;5054222;28;20182;-67
2022/06/30 11:11:36;;;;;;;11.73;3.63;;;;;;;;;;5053641;28;20560;-69
2022/06/30 11:14:02;;;;;;;;;;;;;;;;;;5054729;28;20049;-69
2022/06/30 11:16:28;;;;;;;;;;;;;;;;;;5036099;28;19916;-69
2022/06/30 11:18:54;;;;;;;4.23;3.20;;;;;;;;;;5052648;28;20397;-69
2022/06/30 11:21:20;;;;;;;4.30;3.50;;;;;;;;;;5052262;28;20393;-69
2022/06/30 11:23:47;;;;;;;3.50;3.10;;;;;;;;;;5053555;28;20639;-68
2022/06/30 11:28:59;;;;;;;4.07;3.60;;;;;;;;;;5053881;28;20216;-68
2022/06/30 11:31:26;;;;;;;6.25;3.83;;;;;;;;;;5053679;28;20194;-69
2022/06/30 11:33:53;;;;;;;3.33;2.95;;;;;;;;;;5053618;28;20170;-69
2022/06/30 11:36:19;;;;;;;7.00;3.97;;;;;;;;;;5053467;28;20560;-69
2022/06/30 11:38:51;;;;;;;10.30;4.18;;;;;;;;;;5053716;28;20189;-68
2022/06/30 11:44:06;;;;;;;7.38;4.43;;;;;;;;;;5053613;28;20193;-69
2022/06/30 11:46:32;;;;;;;4.65;4.10;;;;;;;;;;5053322;28;20241;-69
2022/06/30 11:49:04;;;;;;;6.90;4.47;;;;;;;;;;5053435;28;20183;-69
2022/06/30 11:51:30;;;;;;;7.20;4.88;;;;;;;;;;5035715;28;20293;-69
2022/06/30 11:53:56;;;;;;;5.37;4.20;;;;;;;;;;5053869;28;20178;-69
2022/06/30 11:56:22;;;;;;;5.23;4.73;;;;;;;;;;5053623;28;20198;-68
2022/06/30 11:58:48;;;;;;;5.20;4.18;;;;;;;;;;5053571;28;20178;-68
2022/06/30 12:01:14;;;;;;;6.80;4.35;;;;;;;;;;5053438;28;20194;-69
2022/06/30 12:03:43;;;;;;;11.47;5.53;;;;;;;;;;5053195;28;20262;-68
2022/06/30 12:06:10;;;;;;;6.05;5.38;;;;;;;;;;5053061;28;20179;-69
2022/06/30 12:08:36;;;;;;;9.40;6.63;;;;;;;;;;5035126;28;20186;-68
2022/06/30 12:11:02;;;;;;;7.45;5.65;;;;;;;;;;5053089;28;20198;-68
2022/06/30 12:13:29;;;;;;;5.55;5.05;;;;;;;;;;5053531;28;20179;-69
2022/06/30 12:15:55;;;;;;;5.70;4.60;;;;;;;;;;5033897;28;20412;-68
2022/06/30 12:18:24;;;;;;;5.30;4.45;;;;;;;;;;5053001;28;20698;-68
2022/06/30 12:20:50;;;;;;;5.43;4.10;;;;;;;;;;5051633;28;20382;-68
2022/06/30 12:23:17;;;;;;;5.20;4.50;;;;;;;;;;5052971;28;20421;-68
2022/06/30 12:25:43;;;;;;;5.33;4.80;;;;;;;;;;5052019;28;20381;-70
2022/06/30 12:28:08;;;;;;;6.43;5.00;;;;;;;;;;5051936;28;20388;-68
2022/06/30 12:30:35;;;;;;;6.13;4.53;;;;;;;;;;5034995;28;20182;-68
2022/06/30 12:33:04;;;;;;;6.50;4.57;;;;;;;;;;5035117;28;20225;-69
2022/06/30 12:35:33;;;;;;;5.82;5.07;;;;;;;;;;5052866;28;20210;-68
2022/06/30 12:38:18;;;;;;;7.63;5.30;;;;;;;;;;5051957;28;20382;-68
2022/06/30 12:40:44;;;;;;;6.60;5.75;;;;;;;;;;5033879;28;20390;-68
2022/06/30 12:43:10;;;;;;;8.32;5.70;;;;;;;;;;5051929;28;20392;-69
2022/06/30 12:45:53;;;;;;;8.80;6.00;;;;;;;;;;5053042;28;20171;-69
2022/06/30 12:48:38;;;;;;;9.93;5.22;;;;;;;;;;5053008;28;20447;-69
2022/06/30 12:51:04;;;;;;;4.93;3.90;;;;;;;;;;5053638;28;20198;-69
2022/06/30 12:53:30;;;;;;;6.20;4.10;;;;;;;;;;5057690;28;20634;-68
2022/06/30 12:55:57;;;;;;;7.93;4.70;;;;;;;;;;5056818;28;20234;-70
2022/06/30 12:58:23;;;;;;;4.63;4.10;;;;;;;;;;5056078;28;20385;-67
2022/06/30 13:00:49;;;;;;;8.80;4.70;;;;;;;;;;5038496;28;20826;-67
2022/06/30 13:03:15;;;;;;;5.00;4.05;;;;;;;;;;5056257;28;20186;-67
2022/06/30 13:05:41;;;;;;;6.33;4.20;;;;;;;;;;5038666;28;20346;-70
2022/06/30 13:08:07;;;;;;;5.03;3.95;;;;;;;;;;5056635;28;20182;-69
2022/06/30 13:13:17;;;;;;;5.32;4.03;;;;;;;;;;5056499;28;20554;-69
2022/06/30 13:15:44;;;;;;;4.53;4.13;;;;;;;;;;5038337;28;20666;-67
2022/06/30 13:18:09;;;;;;;4.77;3.90;;;;;;;;;;5056013;28;20224;-67
2022/06/30 13:20:35;;;;;;;7.80;4.80;;;;;;;;;;5038050;28;20174;-67
2022/06/30 13:23:01;;;;;;;8.07;4.55;;;;;;;;;;5038024;28;20194;-67
2022/06/30 13:25:27;;;;;;;4.78;4.05;;;;;;;;;;5038032;28;20213;-70
2022/06/30 13:27:53;;;;;;;4.57;3.80;;;;;;;;;;5056193;28;20182;-67
2022/06/30 13:30:19;;;;;;;6.30;3.35;;;;;;;;;;5055915;28;20183;-68
2022/06/30 13:32:45;;;;;;;5.25;3.90;;;;;;;;;;5037858;28;20213;-68
2022/06/30 13:35:12;;;;;;;4.05;3.65;;;;;;;;;;5037905;28;20202;-67
2022/06/30 13:37:38;;;;;;;4.63;3.80;;;;;;;;;;5037885;28;20179;-67
2022/06/30 13:40:04;;;;;;;6.38;4.53;;;;;;;;;;5055514;28;20170;-68
2022/06/30 13:42:30;;;;;;;5.53;3.90;;;;;;;;;;5055439;28;20220;-68
2022/06/30 13:44:56;;;;;;;6.30;3.75;;;;;;;;;;5055570;28;20573;-69
2022/06/30 13:47:22;;;;;;;6.45;4.13;;;;;;;;;;5055649;28;20175;-67
2022/06/30 13:49:48;;;;;;;6.03;4.20;;;;;;;;;;5055929;28;20181;-69
2022/06/30 13:52:14;;;;;;;3.88;3.55;;;;;;;;;;5055704;28;20202;-68
2022/06/30 13:54:40;;;;;;;8.40;4.13;;;;;;;;;;5055496;28;20614;-68
2022/06/30 13:57:09;;;;;;;4.93;4.10;;;;;;;;;;5055805;28;20623;-68
2022/06/30 13:59:35;;;;;;;8.73;4.18;;;;;;;;;;5055322;28;20556;-68
2022/06/30 14:02:01;;;;;;;5.45;4.00;;;;;;;;;;5055432;28;20670;-67
2022/06/30 14:04:27;;;;;;;4.68;4.10;;;;;;;;;;5053847;28;20653;-67
2022/06/30 14:06:56;;;;;;;7.95;4.28;;;;;;;;;;5055026;28;20205;-67
2022/06/30 14:09:21;;;;;;;4.97;4.05;;;;;;;;;;5037040;28;20189;-67
2022/06/30 14:11:48;;;;;;;8.30;4.20;;;;;;;;;;5037120;28;20198;-68
2022/06/30 14:14:14;;;;;;;5.18;3.97;;;;;;;;;;5054930;28;20202;-68
2022/06/30 14:16:40;;;;;;;7.07;4.47;;;;;;;;;;5054670;28;20287;-68
2022/06/30 14:19:06;;;;;;;7.03;3.85;;;;;;;;;;5054862;28;20200;-68
2022/06/30 14:21:32;;;;;;;10.50;5.72;;;;;;;;;;5036623;28;20199;-69
2022/06/30 14:23:58;;;;;;;5.82;4.28;;;;;;;;;;5036764;28;20178;-68
2022/06/30 14:26:26;;;;;;;6.22;3.83;;;;;;;;;;5054898;28;20179;-68
2022/06/30 14:28:51;;;;;;;4.68;4.07;;;;;;;;;;5054533;28;20684;-68
2022/06/30 14:31:17;;;;;;;4.82;4.15;;;;;;;;;;5036337;28;20206;-69
2022/06/30 14:33:44;;;;;;;4.43;4.03;;;;;;;;;;5054875;28;20166;-68
2022/06/30 14:36:10;;;;;;;6.10;3.75;;;;;;;;;;5054239;28;20259;-68
2022/06/30 14:38:37;;;;;;;5.38;4.88;;;;;;;;;;5054573;28;20174;-67
2022/06/30 14:41:03;;;;;;;6.97;4.60;;;;;;;;;;5036359;28;20210;-69
2022/06/30 14:43:29;;;;;;;8.10;4.20;;;;;;;;;;5054352;28;20167;-68
2022/06/30 14:45:55;;;;;;;5.13;3.72;;;;;;;;;;5054244;28;20250;-68
2022/06/30 14:48:22;;;;;;;4.38;3.88;;;;;;;;;;5054328;28;20175;-69
2022/06/30 14:50:48;;;;;;;8.95;4.45;;;;;;;;;;5054158;28;20170;-68